createdAt,value
2023-03-30T00:01:00.935Z,5.8
2023-03-30T00:02:07.475Z,5.7
2023-03-30T00:03:14.499Z,5.7
2023-03-30T00:04:21.306Z,5.8
2023-03-30T00:05:28.097Z,5.8
2023-03-30T00:06:35.003Z,5.7
2023-03-30T00:07:41.884Z,5.7
2023-03-30T00:08:48.684Z,5.7
2023-03-30T00:10:00.549Z,5.7
2023-03-30T00:11:07.720Z,5.7
2023-03-30T00:12:14.428Z,5.7
2023-03-30T00:13:21.284Z,5.6
2023-03-30T00:14:28.314Z,5.7
2023-03-30T00:15:35.085Z,5.7
2023-03-30T00:16:41.980Z,5.6
2023-03-30T00:17:48.799Z,5.5
2023-03-30T00:18:55.642Z,5.6
2023-03-30T00:20:02.514Z,5.5
2023-03-30T00:21:09.779Z,5.6
2023-03-30T00:22:16.664Z,5.6
2023-03-30T00:23:23.475Z,5.5
2023-03-30T00:24:30.344Z,5.6
2023-03-30T00:25:37.275Z,5.5
2023-03-30T00:26:44.197Z,5.6
2023-03-30T00:27:50.992Z,5.4
2023-03-30T00:28:57.828Z,5.5
2023-03-30T00:30:04.672Z,5.6
2023-03-30T00:31:11.647Z,5.7
2023-03-30T00:32:18.549Z,5.7
2023-03-30T00:33:33.868Z,5.7
2023-03-30T00:34:32.283Z,5.6
2023-03-30T00:35:39.184Z,5.6
2023-03-30T00:36:46.025Z,5.6
2023-03-30T00:37:52.995Z,5.7
2023-03-30T00:38:59.829Z,5.6
2023-03-30T00:40:09.791Z,5.6
2023-03-30T00:41:16.861Z,5.7
2023-03-30T00:42:23.729Z,5.7
2023-03-30T00:43:30.635Z,5.7
2023-03-30T00:44:37.431Z,5.7
2023-03-30T00:45:54.419Z,5.7
2023-03-30T00:47:01.232Z,5.7
2023-03-30T00:48:08.146Z,5.7
2023-03-30T00:49:17.888Z,5.7
2023-03-30T00:50:24.969Z,5.8
2023-03-30T00:51:34.920Z,5.7
2023-03-30T00:52:41.821Z,5.7
2023-03-30T00:53:48.637Z,5.7
2023-03-30T00:54:55.438Z,5.7
2023-03-30T00:56:02.278Z,5.7
2023-03-30T00:57:09.289Z,5.7
2023-03-30T00:58:16.135Z,5.7
2023-03-30T00:59:22.952Z,5.9
2023-03-30T01:00:29.916Z,5.7
2023-03-30T01:01:36.776Z,5.7
2023-03-30T01:02:43.720Z,5.8
2023-03-30T01:03:50.746Z,5.6
2023-03-30T01:05:00.199Z,5.7
2023-03-30T01:06:07.157Z,5.8
2023-03-30T01:07:14.014Z,5.8
2023-03-30T01:08:20.863Z,5.8
2023-03-30T01:09:27.700Z,5.8
2023-03-30T01:10:34.610Z,5.8
2023-03-30T01:11:41.478Z,5.7
2023-03-30T01:12:48.275Z,5.7
2023-03-30T01:13:55.089Z,5.8
2023-03-30T01:15:04.763Z,5.8
2023-03-30T01:16:11.761Z,5.7
2023-03-30T01:17:28.605Z,5.7
2023-03-30T01:18:35.403Z,5.8
2023-03-30T01:19:50.227Z,5.7
2023-03-30T01:21:02.271Z,5.7
2023-03-30T01:22:19.127Z,5.7
2023-03-30T01:23:31.094Z,5.7
2023-03-30T01:24:47.994Z,5.9
2023-03-30T01:26:04.998Z,5.9
2023-03-30T01:27:22.006Z,5.8
2023-03-30T01:28:33.919Z,5.8
2023-03-30T01:29:48.700Z,5.8
2023-03-30T01:30:55.638Z,5.8
2023-03-30T01:32:12.522Z,5.7
2023-03-30T01:33:27.232Z,5.7
2023-03-30T01:34:44.099Z,5.7
2023-03-30T01:36:01.045Z,5.8
2023-03-30T01:37:17.972Z,5.8
2023-03-30T01:38:35.016Z,5.8
2023-03-30T01:39:51.940Z,5.7
2023-03-30T01:41:06.810Z,5.8
2023-03-30T01:42:21.694Z,5.9
2023-03-30T01:43:33.588Z,5.9
2023-03-30T01:44:48.085Z,5.7
2023-03-30T01:45:57.998Z,5.9
2023-03-30T01:47:04.868Z,5.8
2023-03-30T01:48:21.674Z,5.8
2023-03-30T01:49:34.478Z,5.8
2023-03-30T01:50:46.282Z,5.8
2023-03-30T01:51:53.154Z,5.8
2023-03-30T01:53:08.150Z,5.8
2023-03-30T01:54:17.875Z,5.9
2023-03-30T01:55:27.499Z,5.8
2023-03-30T01:56:42.283Z,5.9
2023-03-30T01:57:51.944Z,5.8
2023-03-30T01:59:03.759Z,5.8
2023-03-30T02:00:15.670Z,5.9
2023-03-30T02:01:22.721Z,5.9
2023-03-30T02:02:29.491Z,5.9
2023-03-30T02:03:36.379Z,5.9
2023-03-30T02:04:43.125Z,5.8
2023-03-30T02:05:49.974Z,5.8
2023-03-30T02:06:56.842Z,5.8
2023-03-30T02:08:06.355Z,5.8
2023-03-30T02:09:13.169Z,5.9
2023-03-30T02:10:19.991Z,5.8
2023-03-30T02:11:26.750Z,5.8
2023-03-30T02:12:33.646Z,6
2023-03-30T02:13:40.412Z,5.9
2023-03-30T02:14:47.222Z,5.9
2023-03-30T02:15:54.173Z,5.9
2023-03-30T02:17:01.054Z,6
2023-03-30T02:18:12.997Z,6
2023-03-30T02:19:19.928Z,5.9
2023-03-30T02:20:26.713Z,5.9
2023-03-30T02:21:33.575Z,6
2023-03-30T02:22:40.390Z,6
2023-03-30T02:23:47.192Z,6
2023-03-30T02:24:54.073Z,5.9
2023-03-30T02:26:00.901Z,6
2023-03-30T02:27:07.663Z,6
2023-03-30T02:28:14.480Z,5.9
2023-03-30T02:29:21.454Z,6
2023-03-30T02:30:28.290Z,6
2023-03-30T02:31:35.159Z,6
2023-03-30T02:32:42.038Z,6.1
2023-03-30T02:33:56.976Z,6.1
2023-03-30T02:35:11.799Z,6.1
2023-03-30T02:36:26.661Z,6
2023-03-30T02:37:43.670Z,6
2023-03-30T02:38:58.153Z,6
2023-03-30T02:40:12.815Z,6
2023-03-30T02:41:27.534Z,6
2023-03-30T02:42:34.494Z,5.9
2023-03-30T02:43:44.150Z,6
2023-03-30T02:44:53.740Z,6
2023-03-30T02:46:03.834Z,6
2023-03-30T02:47:15.672Z,6.1
2023-03-30T02:48:25.273Z,5.9
2023-03-30T02:49:37.098Z,6.1
2023-03-30T02:50:43.956Z,6
2023-03-30T02:51:58.895Z,6
2023-03-30T02:53:13.556Z,6
2023-03-30T02:54:25.395Z,6.1
2023-03-30T02:55:32.383Z,5.9
2023-03-30T02:56:44.256Z,6
2023-03-30T02:57:51.029Z,6
2023-03-30T02:59:02.920Z,6
2023-03-30T03:00:14.767Z,5.9
2023-03-30T03:01:26.679Z,5.9
2023-03-30T03:02:36.304Z,5.9
2023-03-30T03:03:45.696Z,6
2023-03-30T03:04:52.505Z,5.8
2023-03-30T03:05:59.347Z,5.9
2023-03-30T03:07:06.163Z,6
2023-03-30T03:08:12.927Z,6
2023-03-30T03:09:19.729Z,5.9
2023-03-30T03:10:29.613Z,5.9
2023-03-30T03:11:36.365Z,5.9
2023-03-30T03:12:43.180Z,5.9
2023-03-30T03:13:50.088Z,5.9
2023-03-30T03:14:56.894Z,5.9
2023-03-30T03:16:04.255Z,5.9
2023-03-30T03:17:10.527Z,5.8
2023-03-30T03:18:17.307Z,5.8
2023-03-30T03:19:24.151Z,5.9
2023-03-30T03:20:30.932Z,5.8
2023-03-30T03:21:37.742Z,5.8
2023-03-30T03:22:44.546Z,5.7
2023-03-30T03:23:51.274Z,5.7
2023-03-30T03:24:58.138Z,5.7
2023-03-30T03:26:04.982Z,5.9
2023-03-30T03:27:11.906Z,5.8
2023-03-30T03:28:18.692Z,5.8
2023-03-30T03:29:25.443Z,5.8
2023-03-30T03:30:32.320Z,5.7
2023-03-30T03:31:39.279Z,5.9
2023-03-30T03:32:46.008Z,5.8
2023-03-30T03:33:52.790Z,5.8
2023-03-30T03:34:59.604Z,5.8
2023-03-30T03:36:06.688Z,5.8
2023-03-30T03:37:13.412Z,5.9
2023-03-30T03:38:20.125Z,5.8
2023-03-30T03:39:26.924Z,5.8
2023-03-30T03:40:33.766Z,5.8
2023-03-30T03:41:40.682Z,5.8
2023-03-30T03:42:47.570Z,5.7
2023-03-30T03:43:54.346Z,5.8
2023-03-30T03:45:01.049Z,5.8
2023-03-30T03:46:08.184Z,5.8
2023-03-30T03:47:16.518Z,5.8
2023-03-30T03:48:21.752Z,5.8
2023-03-30T03:49:28.535Z,5.7
2023-03-30T03:50:35.307Z,5.8
2023-03-30T03:51:42.093Z,5.8
2023-03-30T03:52:49.012Z,5.8
2023-03-30T03:53:56.022Z,5.7
2023-03-30T03:55:02.808Z,5.8
2023-03-30T03:56:09.794Z,5.8
2023-03-30T03:57:16.586Z,5.8
2023-03-30T03:58:23.494Z,5.8
2023-03-30T03:59:30.358Z,5.7
2023-03-30T04:00:37.130Z,5.8
2023-03-30T04:01:43.973Z,5.9
2023-03-30T04:02:50.712Z,5.9
2023-03-30T04:03:57.479Z,5.9
2023-03-30T04:05:04.408Z,5.9
2023-03-30T04:06:11.119Z,5.8
2023-03-30T04:07:17.866Z,5.8
2023-03-30T04:08:24.678Z,5.8
2023-03-30T04:09:31.534Z,5.8
2023-03-30T04:10:38.441Z,5.8
2023-03-30T04:11:45.211Z,5.8
2023-03-30T04:12:51.999Z,5.7
2023-03-30T04:13:58.731Z,5.6
2023-03-30T04:15:05.548Z,5.7
2023-03-30T04:16:12.564Z,5.7
2023-03-30T04:17:19.290Z,5.7
2023-03-30T04:18:26.006Z,5.7
2023-03-30T04:19:32.766Z,5.8
2023-03-30T04:20:39.511Z,5.9
2023-03-30T04:21:46.434Z,5.8
2023-03-30T04:22:53.169Z,5.8
2023-03-30T04:23:59.932Z,5.7
2023-03-30T04:25:06.861Z,5.8
2023-03-30T04:26:13.679Z,5.7
2023-03-30T04:27:20.559Z,5.6
2023-03-30T04:28:27.303Z,5.7
2023-03-30T04:29:34.122Z,5.8
2023-03-30T04:30:40.985Z,5.8
2023-03-30T04:31:47.728Z,5.8
2023-03-30T04:32:54.694Z,5.8
2023-03-30T04:34:06.446Z,5.9
2023-03-30T04:35:13.273Z,5.9
2023-03-30T04:36:20.041Z,5.8
2023-03-30T04:37:26.797Z,5.7
2023-03-30T04:38:33.617Z,5.9
2023-03-30T04:39:40.358Z,5.9
2023-03-30T04:40:47.210Z,5.8
2023-03-30T04:41:54.068Z,5.8
2023-03-30T04:43:00.800Z,5.8
2023-03-30T04:44:07.622Z,5.8
2023-03-30T04:45:14.396Z,5.8
2023-03-30T04:46:23.961Z,5.8
2023-03-30T04:47:31.090Z,5.8
2023-03-30T04:48:38.173Z,5.7
2023-03-30T04:49:45.058Z,5.8
2023-03-30T04:50:51.972Z,5.8
2023-03-30T04:51:58.602Z,5.8
2023-03-30T04:53:05.504Z,5.8
2023-03-30T04:54:12.261Z,5.8
2023-03-30T04:55:19.098Z,5.8
2023-03-30T04:56:25.907Z,5.8
2023-03-30T04:57:32.651Z,5.8
2023-03-30T04:58:39.549Z,5.8
2023-03-30T04:59:47.201Z,5.8
2023-03-30T05:00:54.044Z,5.9
2023-03-30T05:02:00.855Z,5.9
2023-03-30T05:03:07.678Z,5.9
2023-03-30T05:04:14.486Z,5.9
2023-03-30T05:05:21.234Z,6
2023-03-30T05:06:28.609Z,5.9
2023-03-30T05:07:35.358Z,6
2023-03-30T05:08:42.151Z,5.9
2023-03-30T05:09:48.990Z,6
2023-03-30T05:10:55.896Z,5.9
2023-03-30T05:12:05.508Z,6
2023-03-30T05:13:12.320Z,6
2023-03-30T05:14:19.062Z,6
2023-03-30T05:15:25.816Z,6.1
2023-03-30T05:16:32.624Z,6
2023-03-30T05:17:39.494Z,5.9
2023-03-30T05:18:46.247Z,5.9
2023-03-30T05:19:53.600Z,5.9
2023-03-30T05:21:00.507Z,6.1
2023-03-30T05:22:07.338Z,6.1
2023-03-30T05:23:14.239Z,5.9
2023-03-30T05:24:21.086Z,5.9
2023-03-30T05:25:27.960Z,6
2023-03-30T05:26:34.838Z,6.1
2023-03-30T05:27:41.478Z,6
2023-03-30T05:28:48.369Z,6
2023-03-30T05:29:55.376Z,6
2023-03-30T05:31:02.402Z,6
2023-03-30T05:32:09.173Z,6
2023-03-30T05:33:15.922Z,6
2023-03-30T05:34:22.700Z,6
2023-03-30T05:35:29.573Z,6
2023-03-30T05:36:36.348Z,6
2023-03-30T05:37:43.203Z,6
2023-03-30T05:38:49.943Z,6
2023-03-30T05:39:56.722Z,6.1
2023-03-30T05:41:03.721Z,6.1
2023-03-30T05:42:10.349Z,6.3
2023-03-30T05:43:17.181Z,6.2
2023-03-30T05:44:23.927Z,6.3
2023-03-30T05:45:30.728Z,6.2
2023-03-30T05:46:37.705Z,6.4
2023-03-30T05:47:44.461Z,6.4
2023-03-30T05:48:51.247Z,6.2
2023-03-30T05:49:57.917Z,6.4
2023-03-30T05:51:04.951Z,6.4
2023-03-30T05:52:11.559Z,6.6
2023-03-30T05:53:18.281Z,6.4
2023-03-30T05:54:25.025Z,6.4
2023-03-30T05:55:31.799Z,6.4
2023-03-30T05:56:39.511Z,6.4
2023-03-30T05:57:47.743Z,6.5
2023-03-30T05:58:54.611Z,6.4
2023-03-30T06:00:01.342Z,6.5
2023-03-30T06:01:08.488Z,6.6
2023-03-30T06:02:15.326Z,6.5
2023-03-30T06:03:22.205Z,6.5
2023-03-30T06:04:28.936Z,6.6
2023-03-30T06:05:35.672Z,6.7
2023-03-30T06:06:42.516Z,6.6
2023-03-30T06:07:49.240Z,6.6
2023-03-30T06:08:56.090Z,6.7
2023-03-30T06:10:03.043Z,6.8
2023-03-30T06:11:10.006Z,6.8
2023-03-30T06:12:16.790Z,6.9
2023-03-30T06:13:23.559Z,7
2023-03-30T06:14:30.308Z,6.9
2023-03-30T06:15:37.145Z,6.9
2023-03-30T06:16:44.011Z,7
2023-03-30T06:17:51.058Z,7
2023-03-30T06:18:57.671Z,7
2023-03-30T06:20:04.499Z,7.1
2023-03-30T06:21:11.799Z,7.1
2023-03-30T06:22:18.625Z,7.1
2023-03-30T06:23:25.428Z,7.1
2023-03-30T06:24:32.335Z,7.1
2023-03-30T06:25:39.052Z,7.2
2023-03-30T06:26:45.929Z,7.3
2023-03-30T06:27:52.697Z,7.3
2023-03-30T06:28:59.485Z,7.4
2023-03-30T06:30:06.293Z,7.3
2023-03-30T06:31:13.434Z,7.4
2023-03-30T06:32:20.195Z,7.4
2023-03-30T06:33:27.052Z,7.6
2023-03-30T06:34:33.810Z,7.7
2023-03-30T06:35:40.625Z,7.7
2023-03-30T06:36:49.880Z,7.8
2023-03-30T06:37:56.639Z,7.5
2023-03-30T06:39:05.302Z,7.5
2023-03-30T06:40:10.525Z,7.7
2023-03-30T06:41:17.637Z,7.6
2023-03-30T06:42:24.780Z,7.6
2023-03-30T06:43:31.580Z,7.6
2023-03-30T06:44:38.731Z,7.7
2023-03-30T06:46:43.806Z,7.7
2023-03-30T06:48:48.809Z,7.7
2023-03-30T06:50:45.167Z,7.7
2023-03-30T06:51:51.928Z,7.9
2023-03-30T06:52:58.788Z,8
2023-03-30T06:54:05.673Z,8
2023-03-30T06:55:12.436Z,8
2023-03-30T06:56:19.225Z,8
2023-03-30T06:57:26.136Z,8.1
2023-03-30T06:58:32.852Z,8.2
2023-03-30T06:59:39.723Z,8.2
2023-03-30T07:00:46.567Z,8.3
2023-03-30T07:01:53.518Z,8.4
2023-03-30T07:03:00.326Z,8.5
2023-03-30T07:04:07.127Z,8.5
2023-03-30T07:05:13.828Z,8.7
2023-03-30T07:06:21.256Z,8.7
2023-03-30T07:07:27.393Z,8.7
2023-03-30T07:08:34.128Z,8.7
2023-03-30T07:09:40.889Z,8.7
2023-03-30T07:10:47.692Z,8.8
2023-03-30T07:11:56.261Z,8.9
2023-03-30T07:13:01.427Z,9.1
2023-03-30T07:14:08.266Z,9.1
2023-03-30T07:15:15.079Z,9.1
2023-03-30T07:16:22.100Z,8.9
2023-03-30T07:17:28.816Z,9
2023-03-30T07:18:35.551Z,9.1
2023-03-30T07:19:42.426Z,9.1
2023-03-30T07:20:49.183Z,9.3
2023-03-30T07:21:57.530Z,9.3
2023-03-30T07:23:04.460Z,9.4
2023-03-30T07:24:11.271Z,9.5
2023-03-30T07:25:18.116Z,9.5
2023-03-30T07:26:24.963Z,9.4
2023-03-30T07:27:31.747Z,9.5
2023-03-30T07:28:38.627Z,9.7
2023-03-30T07:29:45.447Z,9.9
2023-03-30T07:30:52.252Z,10.1
2023-03-30T07:31:59.110Z,10
2023-03-30T07:33:06.033Z,9.9
2023-03-30T07:34:12.802Z,10
2023-03-30T07:35:19.813Z,10
2023-03-30T07:36:26.578Z,10.2
2023-03-30T07:37:33.395Z,10.3
2023-03-30T07:38:40.242Z,10.2
2023-03-30T07:39:47.021Z,10.4
2023-03-30T07:40:53.844Z,10.4
2023-03-30T07:42:00.749Z,10.5
2023-03-30T07:43:07.772Z,10.5
2023-03-30T07:44:14.490Z,10.5
2023-03-30T07:45:21.271Z,10.5
2023-03-30T07:46:28.068Z,10.6
2023-03-30T07:47:34.907Z,10.5
2023-03-30T07:48:41.613Z,10.6
2023-03-30T07:49:48.445Z,10.9
2023-03-30T07:50:55.545Z,10.8
2023-03-30T07:52:05.353Z,10.9
2023-03-30T07:53:12.202Z,11.1
2023-03-30T07:54:19.005Z,11
2023-03-30T07:55:25.793Z,11
2023-03-30T07:56:32.745Z,11.1
2023-03-30T07:57:39.548Z,11.1
2023-03-30T07:58:46.320Z,11
2023-03-30T07:59:53.153Z,11.1
2023-03-30T08:00:59.986Z,11
2023-03-30T08:02:06.729Z,10.8
2023-03-30T08:03:13.656Z,10.9
2023-03-30T08:04:20.319Z,10.7
2023-03-30T08:05:27.068Z,10.8
2023-03-30T08:06:33.822Z,10.7
2023-03-30T08:07:40.708Z,10.9
2023-03-30T08:08:47.484Z,10.9
2023-03-30T08:09:54.328Z,11.1
2023-03-30T08:11:01.249Z,11.2
2023-03-30T08:12:08.018Z,11
2023-03-30T08:13:14.941Z,11.1
2023-03-30T08:14:21.736Z,11.3
2023-03-30T08:15:28.531Z,11.4
2023-03-30T08:16:35.442Z,11.3
2023-03-30T08:17:42.130Z,11.4
2023-03-30T08:18:48.943Z,11.3
2023-03-30T08:19:55.744Z,11.3
2023-03-30T08:21:02.800Z,11.4
2023-03-30T08:22:09.419Z,11.2
2023-03-30T08:23:19.445Z,11.1
2023-03-30T08:24:26.356Z,11.1
2023-03-30T08:25:33.140Z,11.1
2023-03-30T08:26:39.945Z,11
2023-03-30T08:27:46.720Z,10.9
2023-03-30T08:28:53.523Z,11.1
2023-03-30T08:30:00.318Z,11.2
2023-03-30T08:31:07.545Z,11.2
2023-03-30T08:32:14.178Z,11.1
2023-03-30T08:33:21.037Z,11.1
2023-03-30T08:34:27.774Z,11.2
2023-03-30T08:35:34.614Z,11.3
2023-03-30T08:36:41.421Z,11.1
2023-03-30T08:37:48.180Z,11.1
2023-03-30T08:38:54.953Z,10.9
2023-03-30T08:40:01.882Z,10.8
2023-03-30T08:41:11.514Z,10.9
2023-03-30T08:42:28.394Z,10.7
2023-03-30T08:43:40.335Z,10.7
2023-03-30T08:44:52.165Z,10.7
2023-03-30T08:45:59.033Z,10.8
2023-03-30T08:47:05.746Z,10.7
2023-03-30T08:48:12.562Z,10.7
2023-03-30T08:49:19.323Z,10.7
2023-03-30T08:50:26.317Z,10.7
2023-03-30T08:51:38.188Z,10.8
2023-03-30T08:52:45.058Z,10.8
2023-03-30T08:53:51.827Z,10.8
2023-03-30T08:54:58.561Z,10.8
2023-03-30T08:56:05.390Z,11.1
2023-03-30T08:57:12.268Z,11.1
2023-03-30T08:58:18.966Z,11.2
2023-03-30T08:59:33.521Z,11.4
2023-03-30T09:00:50.669Z,11.7
2023-03-30T09:01:57.413Z,11.8
2023-03-30T09:03:14.435Z,11.8
2023-03-30T09:04:31.307Z,11.5
2023-03-30T09:05:41.181Z,11.5
2023-03-30T09:06:53.108Z,11.4
2023-03-30T09:08:05.004Z,11.6
2023-03-30T09:09:16.865Z,11.6
2023-03-30T09:10:26.717Z,11.6
2023-03-30T09:11:33.732Z,11.6
2023-03-30T09:12:40.642Z,11.5
2023-03-30T09:13:54.073Z,11.5
2023-03-30T09:15:00.867Z,11.7
2023-03-30T09:16:15.304Z,11.7
2023-03-30T09:17:32.309Z,11.7
2023-03-30T09:18:42.204Z,11.7
2023-03-30T09:19:48.968Z,11.7
2023-03-30T09:21:00.950Z,11.6
2023-03-30T09:22:07.971Z,11.6
2023-03-30T09:23:14.765Z,11.5
2023-03-30T09:24:21.574Z,11.4
2023-03-30T09:25:28.305Z,11.7
2023-03-30T09:26:35.122Z,11.3
2023-03-30T09:27:44.766Z,11.4
2023-03-30T09:28:59.365Z,11.3
2023-03-30T09:30:13.764Z,11.2
2023-03-30T09:31:21.895Z,11.3
2023-03-30T09:32:32.489Z,11.3
2023-03-30T09:33:44.217Z,11.3
2023-03-30T09:34:58.876Z,11.2
2023-03-30T09:36:08.526Z,11.2
2023-03-30T09:37:22.978Z,11.3
2023-03-30T09:38:29.791Z,11.3
2023-03-30T09:39:36.638Z,11.5
2023-03-30T09:40:43.556Z,11.4
2023-03-30T09:41:53.169Z,11.6
2023-03-30T09:43:07.538Z,11.8
2023-03-30T09:44:22.201Z,12
2023-03-30T09:45:36.801Z,12
2023-03-30T09:46:43.651Z,12
2023-03-30T09:47:50.411Z,11.9
2023-03-30T09:48:57.171Z,12.1
2023-03-30T09:50:14.318Z,11.9
2023-03-30T09:51:26.402Z,11.9
2023-03-30T09:52:32.945Z,11.9
2023-03-30T09:53:39.837Z,11.9
2023-03-30T09:54:46.952Z,11.9
2023-03-30T09:55:53.781Z,12
2023-03-30T09:57:03.573Z,12
2023-03-30T09:58:10.374Z,12
2023-03-30T09:59:22.197Z,12.1
2023-03-30T10:00:31.489Z,12
2023-03-30T10:01:38.626Z,12.2
2023-03-30T10:02:45.470Z,12.2
2023-03-30T10:03:57.337Z,12.1
2023-03-30T10:05:11.661Z,12.2
2023-03-30T10:06:18.476Z,12.3
2023-03-30T10:07:25.243Z,12.3
2023-03-30T10:08:37.076Z,12.4
2023-03-30T10:09:46.529Z,12.5
2023-03-30T10:10:53.370Z,12.5
2023-03-30T10:12:00.283Z,12.5
2023-03-30T10:13:07.084Z,12.5
2023-03-30T10:14:16.611Z,12.7
2023-03-30T10:15:28.378Z,12.5
2023-03-30T10:16:35.127Z,12.8
2023-03-30T10:17:41.920Z,12.8
2023-03-30T10:18:48.615Z,13
2023-03-30T10:20:07.454Z,13.1
2023-03-30T10:21:15.188Z,13.4
2023-03-30T10:22:21.929Z,13.7
2023-03-30T10:23:28.745Z,13.8
2023-03-30T10:24:35.533Z,13.5
2023-03-30T10:25:42.485Z,13.6
2023-03-30T10:26:49.389Z,13.9
2023-03-30T10:27:56.246Z,14.1
2023-03-30T10:29:03.034Z,14.1
2023-03-30T10:30:09.852Z,14.2
2023-03-30T10:31:16.836Z,14.1
2023-03-30T10:32:26.356Z,13.9
2023-03-30T10:33:30.638Z,14
2023-03-30T10:34:42.461Z,13.9
2023-03-30T10:35:49.385Z,14.1
2023-03-30T10:36:58.670Z,14.2
2023-03-30T10:38:05.513Z,14.2
2023-03-30T10:39:12.301Z,14.2
2023-03-30T10:40:27.078Z,14.4
2023-03-30T10:41:39.581Z,14.5
2023-03-30T10:42:46.302Z,14.5
2023-03-30T10:43:53.124Z,14.4
2023-03-30T10:44:59.871Z,14.6
2023-03-30T10:46:18.601Z,14.7
2023-03-30T10:47:21.441Z,14.6
2023-03-30T10:48:33.187Z,14.8
2023-03-30T10:49:45.006Z,15
2023-03-30T10:51:01.891Z,15.2
2023-03-30T10:52:13.748Z,15.3
2023-03-30T10:53:26.423Z,15.3
2023-03-30T10:54:43.342Z,14.8
2023-03-30T10:55:53.155Z,14.9
2023-03-30T10:57:05.001Z,14.9
2023-03-30T10:58:14.464Z,14.8
2023-03-30T10:59:26.321Z,14.8
2023-03-30T11:00:43.348Z,14.8
2023-03-30T11:01:53.255Z,14.4
2023-03-30T11:03:10.230Z,14.4
2023-03-30T11:04:24.798Z,14.3
2023-03-30T11:05:36.686Z,14.4
2023-03-30T11:06:43.421Z,14.2
2023-03-30T11:07:50.137Z,14.2
2023-03-30T11:09:02.149Z,14.1
2023-03-30T11:10:08.947Z,14.2
2023-03-30T11:11:18.486Z,13.9
2023-03-30T11:12:25.278Z,13.9
2023-03-30T11:13:32.075Z,14
2023-03-30T11:14:39.018Z,13.9
2023-03-30T11:15:55.914Z,14
2023-03-30T11:17:05.302Z,13.8
2023-03-30T11:18:15.147Z,13.9
2023-03-30T11:19:26.823Z,14
2023-03-30T11:20:41.540Z,14.1
2023-03-30T11:21:58.466Z,13.9
2023-03-30T11:23:15.413Z,13.8
2023-03-30T11:24:22.207Z,13.9
2023-03-30T11:25:29.120Z,13.7
2023-03-30T11:26:41.111Z,13.8
2023-03-30T11:27:58.062Z,13.8
2023-03-30T11:29:09.959Z,13.8
2023-03-30T11:30:26.819Z,13.8
2023-03-30T11:31:33.713Z,13.8
2023-03-30T11:32:48.203Z,13.7
2023-03-30T11:34:00.031Z,13.8
2023-03-30T11:35:14.759Z,13.8
2023-03-30T11:36:31.607Z,13.7
2023-03-30T11:37:43.443Z,13.7
2023-03-30T11:38:53.016Z,13.7
2023-03-30T11:40:04.866Z,13.9
2023-03-30T11:41:16.742Z,13.9
2023-03-30T11:42:23.583Z,13.9
2023-03-30T11:43:33.373Z,14
2023-03-30T11:44:40.150Z,13.9
2023-03-30T11:45:47.009Z,14.1
2023-03-30T11:46:58.757Z,14.2
2023-03-30T11:48:10.635Z,14
2023-03-30T11:49:27.434Z,14.1
2023-03-30T11:50:45.764Z,14.2
2023-03-30T11:51:56.609Z,14.2
2023-03-30T11:53:13.455Z,14.3
2023-03-30T11:54:30.385Z,14.3
2023-03-30T11:55:45.169Z,14.3
2023-03-30T11:56:51.985Z,14.2
2023-03-30T11:58:08.849Z,14.3
2023-03-30T11:59:20.817Z,14.3
2023-03-30T12:00:27.653Z,14.2
2023-03-30T12:01:44.581Z,14.4
2023-03-30T12:02:58.982Z,14.5
2023-03-30T12:04:13.846Z,14.5
2023-03-30T12:05:20.598Z,14.5
2023-03-30T12:06:30.211Z,14.4
2023-03-30T12:07:37.095Z,14.4
2023-03-30T12:08:51.994Z,14.5
2023-03-30T12:10:06.835Z,14.4
2023-03-30T12:11:11.864Z,14.3
2023-03-30T12:12:21.921Z,14.3
2023-03-30T12:13:35.717Z,14.3
2023-03-30T12:14:35.622Z,14.4
2023-03-30T12:15:47.618Z,14.4
2023-03-30T12:16:54.441Z,14.4
2023-03-30T12:18:01.230Z,14.5
2023-03-30T12:19:13.028Z,14.5
2023-03-30T12:20:19.762Z,14.5
2023-03-30T12:21:31.683Z,14.4
2023-03-30T12:22:46.507Z,14.5
2023-03-30T12:24:00.930Z,14.3
2023-03-30T12:25:07.756Z,14.2
2023-03-30T12:26:22.447Z,14.2
2023-03-30T12:27:32.226Z,14.3
2023-03-30T12:28:54.220Z,14.2
2023-03-30T12:30:58.529Z,14.1
2023-03-30T12:32:05.595Z,14.1
2023-03-30T12:33:12.335Z,14
2023-03-30T12:34:19.253Z,14.2
2023-03-30T12:35:26.069Z,14.3
2023-03-30T12:36:43.003Z,14.3
2023-03-30T12:37:49.816Z,14.2
2023-03-30T12:38:56.654Z,14.2
2023-03-30T12:40:06.001Z,14.1
2023-03-30T12:41:17.811Z,14.2
2023-03-30T12:42:24.589Z,14.1
2023-03-30T12:43:37.108Z,14.1
2023-03-30T12:44:54.076Z,14.1
2023-03-30T12:46:01.223Z,14
2023-03-30T12:47:10.196Z,14
2023-03-30T12:48:25.678Z,14
2023-03-30T12:49:37.521Z,14.1
2023-03-30T12:50:52.189Z,14
2023-03-30T12:52:04.389Z,13.9
2023-03-30T12:53:16.935Z,13.9
2023-03-30T12:54:34.572Z,13.8
2023-03-30T12:55:50.517Z,13.9
2023-03-30T12:57:07.806Z,13.9
2023-03-30T12:58:17.618Z,13.8
2023-03-30T12:59:31.230Z,13.7
2023-03-30T13:00:44.527Z,13.7
2023-03-30T13:01:51.384Z,13.7
2023-03-30T13:03:00.816Z,13.7
2023-03-30T13:04:12.635Z,13.6
2023-03-30T13:05:25.329Z,13.7
2023-03-30T13:06:32.087Z,13.6
2023-03-30T13:07:41.639Z,13.6
2023-03-30T13:08:48.323Z,13.6
2023-03-30T13:10:04.947Z,13.6
2023-03-30T13:11:19.799Z,13.6
2023-03-30T13:12:26.655Z,13.6
2023-03-30T13:13:33.408Z,13.6
2023-03-30T13:14:48.057Z,13.5
2023-03-30T13:16:00.479Z,13.4
2023-03-30T13:17:07.424Z,13.5
2023-03-30T13:18:17.118Z,13.4
2023-03-30T13:19:31.754Z,13.3
2023-03-30T13:20:38.554Z,13.3
2023-03-30T13:21:50.381Z,13.4
2023-03-30T13:23:07.420Z,13.4
2023-03-30T13:24:14.132Z,13.4
2023-03-30T13:25:31.071Z,13.4
2023-03-30T13:26:43.558Z,13.3
2023-03-30T13:27:50.360Z,13.3
2023-03-30T13:28:57.149Z,13.3
2023-03-30T13:30:06.807Z,13.1
2023-03-30T13:31:13.900Z,13.1
2023-03-30T13:32:25.696Z,13.1
2023-03-30T13:33:42.612Z,13
2023-03-30T13:34:58.842Z,13.1
2023-03-30T13:36:04.776Z,13
2023-03-30T13:37:16.428Z,13.1
2023-03-30T13:38:26.004Z,12.9
2023-03-30T13:39:43.101Z,12.9
2023-03-30T13:42:04.584Z,12.8
2023-03-30T13:43:14.659Z,12.8
2023-03-30T13:44:21.519Z,12.5
2023-03-30T13:45:36.232Z,12.6
2023-03-30T13:46:53.071Z,12.5
2023-03-30T13:48:04.863Z,12.3
2023-03-30T13:49:14.749Z,12.3
2023-03-30T13:50:31.635Z,12.2
2023-03-30T13:51:38.527Z,12.1
2023-03-30T13:52:48.010Z,12
2023-03-30T13:53:54.838Z,12
2023-03-30T13:55:06.840Z,11.7
2023-03-30T13:56:13.717Z,11.8
2023-03-30T13:57:20.650Z,11.7
2023-03-30T13:58:32.577Z,11.7
2023-03-30T13:59:39.450Z,11.6
2023-03-30T14:00:48.112Z,11.6
2023-03-30T14:02:03.261Z,11.4
2023-03-30T14:03:10.045Z,11.4
2023-03-30T14:04:21.879Z,11.4
2023-03-30T14:05:28.728Z,11.5
2023-03-30T14:06:35.477Z,11.3
2023-03-30T14:07:47.342Z,11.2
2023-03-30T14:08:54.068Z,11.3
2023-03-30T14:10:08.923Z,11
2023-03-30T14:11:18.520Z,11.1
2023-03-30T14:12:30.610Z,11.1
2023-03-30T14:13:37.373Z,11.1
2023-03-30T14:14:44.139Z,11.1
2023-03-30T14:15:50.897Z,11
2023-03-30T14:16:57.771Z,10.8
2023-03-30T14:18:04.653Z,10.9
2023-03-30T14:19:11.403Z,11
2023-03-30T14:20:23.259Z,10.9
2023-03-30T14:21:37.912Z,10.8
2023-03-30T14:22:47.529Z,10.9
2023-03-30T14:23:54.355Z,10.8
2023-03-30T14:25:01.266Z,10.9
2023-03-30T14:26:08.366Z,10.9
2023-03-30T14:27:15.090Z,10.9
2023-03-30T14:28:21.873Z,10.8
2023-03-30T14:29:31.550Z,10.8
2023-03-30T14:30:35.494Z,10.7
2023-03-30T14:31:42.388Z,10.8
2023-03-30T14:32:49.273Z,10.7
2023-03-30T14:34:06.123Z,10.7
2023-03-30T14:35:23.018Z,10.7
2023-03-30T14:36:29.782Z,10.7
2023-03-30T14:37:36.606Z,10.7
2023-03-30T14:38:43.332Z,10.6
2023-03-30T14:39:50.123Z,10.6
2023-03-30T14:40:56.923Z,10.6
2023-03-30T14:42:03.812Z,10.7
2023-03-30T14:43:13.233Z,10.7
2023-03-30T14:44:20.098Z,10.6
2023-03-30T14:45:26.829Z,10.6
2023-03-30T14:46:33.686Z,10.6
2023-03-30T14:47:43.292Z,10.5
2023-03-30T14:48:50.924Z,10.6
2023-03-30T14:49:56.862Z,10.6
2023-03-30T14:51:03.703Z,10.5
2023-03-30T14:52:23.308Z,10.5
2023-03-30T14:53:30.129Z,10.5
2023-03-30T14:54:36.986Z,10.6
2023-03-30T14:55:43.744Z,10.5
2023-03-30T14:56:50.579Z,10.6
2023-03-30T14:58:02.391Z,10.6
2023-03-30T14:59:09.121Z,10.5
2023-03-30T15:00:15.917Z,10.6
2023-03-30T15:01:25.726Z,10.7
2023-03-30T15:02:32.529Z,10.6
2023-03-30T15:03:39.304Z,10.6
2023-03-30T15:04:46.201Z,10.6
2023-03-30T15:05:53.001Z,10.4
2023-03-30T15:06:59.809Z,10.4
2023-03-30T15:08:06.676Z,10.3
2023-03-30T15:09:16.320Z,10.4
2023-03-30T15:10:23.127Z,10.3
2023-03-30T15:11:38.105Z,10.4
2023-03-30T15:12:44.889Z,10.4
2023-03-30T15:13:51.801Z,10.4
2023-03-30T15:14:58.551Z,10.3
2023-03-30T15:16:05.354Z,10.3
2023-03-30T15:17:12.282Z,10.1
2023-03-30T15:18:21.769Z,10.2
2023-03-30T15:19:28.703Z,10.2
2023-03-30T15:20:35.532Z,10.2
2023-03-30T15:21:42.438Z,10.1
2023-03-30T15:22:49.223Z,10.1
2023-03-30T15:23:56.016Z,10.1
2023-03-30T15:25:02.969Z,9.9
2023-03-30T15:26:09.806Z,9.9
2023-03-30T15:27:16.601Z,9.9
2023-03-30T15:28:23.330Z,9.8
2023-03-30T15:29:30.333Z,9.8
2023-03-30T15:30:37.085Z,9.8
2023-03-30T15:31:46.589Z,9.8
2023-03-30T15:33:01.099Z,9.8
2023-03-30T15:34:08.038Z,9.9
2023-03-30T15:35:17.808Z,9.8
2023-03-30T15:36:24.720Z,9.9
2023-03-30T15:37:36.535Z,9.7
2023-03-30T15:38:43.546Z,9.8
2023-03-30T15:39:53.296Z,9.8
2023-03-30T15:41:00.136Z,9.7
2023-03-30T15:42:06.913Z,9.6
2023-03-30T15:43:13.686Z,9.5